sensor_id;sensor_type;location;lat;lon;timestamp;P1;durP1;ratioP1;P2;durP2;ratioP2
21192;SDS011;10754;51.106;7.164;2022-12-13T00:00:17;14.37;;;12.83;;
21192;SDS011;10754;51.106;7.164;2022-12-13T00:02:43;13.90;;;11.83;;
21192;SDS011;10754;51.106;7.164;2022-12-13T00:05:09;14.43;;;12.93;;
21192;SDS011;10754;51.106;7.164;2022-12-13T00:07:36;14.43;;;12.83;;
21192;SDS011;10754;51.106;7.164;2022-12-13T00:10:02;14.90;;;13.23;;
21192;SDS011;10754;51.106;7.164;2022-12-13T00:12:28;13.50;;;12.07;;
21192;SDS011;10754;51.106;7.164;2022-12-13T00:14:54;15.57;;;13.20;;
21192;SDS011;10754;51.106;7.164;2022-12-13T00:17:19;15.63;;;12.93;;
21192;SDS011;10754;51.106;7.164;2022-12-13T00:19:48;14.83;;;12.87;;
21192;SDS011;10754;51.106;7.164;2022-12-13T00:22:13;15.43;;;12.83;;
21192;SDS011;10754;51.106;7.164;2022-12-13T00:24:40;14.13;;;12.63;;
21192;SDS011;10754;51.106;7.164;2022-12-13T00:27:06;13.63;;;11.90;;
21192;SDS011;10754;51.106;7.164;2022-12-13T00:29:32;15.77;;;13.70;;
21192;SDS011;10754;51.106;7.164;2022-12-13T00:31:57;14.73;;;12.63;;
21192;SDS011;10754;51.106;7.164;2022-12-13T00:34:23;14.67;;;12.57;;
21192;SDS011;10754;51.106;7.164;2022-12-13T00:36:49;14.00;;;12.50;;
21192;SDS011;10754;51.106;7.164;2022-12-13T00:39:15;15.57;;;13.43;;
21192;SDS011;10754;51.106;7.164;2022-12-13T00:41:42;14.63;;;12.47;;
21192;SDS011;10754;51.106;7.164;2022-12-13T00:44:09;14.40;;;12.10;;
21192;SDS011;10754;51.106;7.164;2022-12-13T00:46:36;14.30;;;12.60;;
21192;SDS011;10754;51.106;7.164;2022-12-13T00:49:02;15.50;;;13.30;;
21192;SDS011;10754;51.106;7.164;2022-12-13T00:51:30;15.23;;;12.70;;
21192;SDS011;10754;51.106;7.164;2022-12-13T00:53:57;15.53;;;12.67;;
21192;SDS011;10754;51.106;7.164;2022-12-13T00:56:24;15.03;;;12.77;;
21192;SDS011;10754;51.106;7.164;2022-12-13T00:58:51;15.03;;;12.37;;
21192;SDS011;10754;51.106;7.164;2022-12-13T01:01:19;15.07;;;12.20;;
21192;SDS011;10754;51.106;7.164;2022-12-13T01:03:48;14.20;;;12.50;;
21192;SDS011;10754;51.106;7.164;2022-12-13T01:06:14;15.40;;;12.63;;
21192;SDS011;10754;51.106;7.164;2022-12-13T01:08:43;14.70;;;12.97;;
21192;SDS011;10754;51.106;7.164;2022-12-13T01:11:09;16.30;;;13.00;;
21192;SDS011;10754;51.106;7.164;2022-12-13T01:13:36;15.40;;;12.63;;
21192;SDS011;10754;51.106;7.164;2022-12-13T01:16:03;15.20;;;13.07;;
21192;SDS011;10754;51.106;7.164;2022-12-13T01:18:30;15.27;;;13.00;;
21192;SDS011;10754;51.106;7.164;2022-12-13T01:20:57;17.50;;;13.07;;
21192;SDS011;10754;51.106;7.164;2022-12-13T01:23:24;14.53;;;12.80;;
21192;SDS011;10754;51.106;7.164;2022-12-13T01:25:50;17.30;;;13.23;;
21192;SDS011;10754;51.106;7.164;2022-12-13T01:28:16;14.90;;;12.90;;
21192;SDS011;10754;51.106;7.164;2022-12-13T01:30:41;15.70;;;12.67;;
21192;SDS011;10754;51.106;7.164;2022-12-13T01:33:07;15.40;;;13.20;;
21192;SDS011;10754;51.106;7.164;2022-12-13T01:35:33;14.87;;;12.27;;
21192;SDS011;10754;51.106;7.164;2022-12-13T01:37:59;17.90;;;14.10;;
21192;SDS011;10754;51.106;7.164;2022-12-13T01:40:27;17.20;;;14.13;;
21192;SDS011;10754;51.106;7.164;2022-12-13T01:42:52;16.00;;;13.00;;
21192;SDS011;10754;51.106;7.164;2022-12-13T01:45:20;20.60;;;14.23;;
21192;SDS011;10754;51.106;7.164;2022-12-13T01:47:48;16.33;;;12.70;;
21192;SDS011;10754;51.106;7.164;2022-12-13T01:50:29;15.03;;;12.70;;
21192;SDS011;10754;51.106;7.164;2022-12-13T01:52:58;15.57;;;13.07;;
21192;SDS011;10754;51.106;7.164;2022-12-13T01:55:25;16.07;;;13.23;;
21192;SDS011;10754;51.106;7.164;2022-12-13T01:57:54;15.03;;;12.60;;
21192;SDS011;10754;51.106;7.164;2022-12-13T02:00:21;16.00;;;14.20;;
21192;SDS011;10754;51.106;7.164;2022-12-13T02:02:49;17.33;;;13.60;;
21192;SDS011;10754;51.106;7.164;2022-12-13T02:05:20;16.67;;;13.43;;
21192;SDS011;10754;51.106;7.164;2022-12-13T02:07:47;15.30;;;12.93;;
21192;SDS011;10754;51.106;7.164;2022-12-13T02:10:13;17.70;;;13.00;;
21192;SDS011;10754;51.106;7.164;2022-12-13T02:12:39;16.60;;;13.53;;
21192;SDS011;10754;51.106;7.164;2022-12-13T02:15:12;17.70;;;14.10;;
21192;SDS011;10754;51.106;7.164;2022-12-13T02:18:01;15.13;;;12.53;;
21192;SDS011;10754;51.106;7.164;2022-12-13T02:23:23;14.57;;;12.73;;
21192;SDS011;10754;51.106;7.164;2022-12-13T02:26:53;15.27;;;13.40;;
21192;SDS011;10754;51.106;7.164;2022-12-13T02:31:51;16.40;;;13.53;;
21192;SDS011;10754;51.106;7.164;2022-12-13T02:37:11;15.43;;;13.07;;
21192;SDS011;10754;51.106;7.164;2022-12-13T02:39:50;16.53;;;13.40;;
21192;SDS011;10754;51.106;7.164;2022-12-13T02:42:25;16.83;;;13.87;;
21192;SDS011;10754;51.106;7.164;2022-12-13T02:45:02;16.77;;;12.70;;
21192;SDS011;10754;51.106;7.164;2022-12-13T02:47:39;16.43;;;13.67;;
21192;SDS011;10754;51.106;7.164;2022-12-13T02:50:08;17.27;;;14.07;;
21192;SDS011;10754;51.106;7.164;2022-12-13T02:52:36;16.83;;;13.57;;
21192;SDS011;10754;51.106;7.164;2022-12-13T02:55:06;17.60;;;15.13;;
21192;SDS011;10754;51.106;7.164;2022-12-13T02:57:37;18.63;;;14.23;;
21192;SDS011;10754;51.106;7.164;2022-12-13T03:02:44;15.27;;;13.17;;
21192;SDS011;10754;51.106;7.164;2022-12-13T03:05:35;16.10;;;13.77;;
21192;SDS011;10754;51.106;7.164;2022-12-13T03:13:28;16.47;;;13.00;;
21192;SDS011;10754;51.106;7.164;2022-12-13T03:16:37;18.23;;;14.23;;
21192;SDS011;10754;51.106;7.164;2022-12-13T03:19:08;16.40;;;13.83;;
21192;SDS011;10754;51.106;7.164;2022-12-13T03:21:39;16.87;;;13.57;;
21192;SDS011;10754;51.106;7.164;2022-12-13T03:24:07;16.60;;;14.17;;
21192;SDS011;10754;51.106;7.164;2022-12-13T03:26:33;16.73;;;14.50;;
21192;SDS011;10754;51.106;7.164;2022-12-13T03:29:03;17.87;;;14.27;;
21192;SDS011;10754;51.106;7.164;2022-12-13T03:31:30;16.60;;;13.60;;
21192;SDS011;10754;51.106;7.164;2022-12-13T03:33:55;17.70;;;14.30;;
21192;SDS011;10754;51.106;7.164;2022-12-13T03:36:21;15.93;;;13.80;;
21192;SDS011;10754;51.106;7.164;2022-12-13T03:38:47;17.20;;;13.73;;
21192;SDS011;10754;51.106;7.164;2022-12-13T03:41:14;18.33;;;14.40;;
21192;SDS011;10754;51.106;7.164;2022-12-13T03:43:42;15.20;;;13.23;;
21192;SDS011;10754;51.106;7.164;2022-12-13T03:46:09;16.23;;;13.97;;
21192;SDS011;10754;51.106;7.164;2022-12-13T03:48:34;16.30;;;13.87;;
21192;SDS011;10754;51.106;7.164;2022-12-13T03:51:00;18.27;;;14.47;;
21192;SDS011;10754;51.106;7.164;2022-12-13T03:53:26;16.53;;;13.40;;
21192;SDS011;10754;51.106;7.164;2022-12-13T03:55:52;15.93;;;13.50;;
21192;SDS011;10754;51.106;7.164;2022-12-13T03:58:17;19.47;;;15.23;;
21192;SDS011;10754;51.106;7.164;2022-12-13T04:00:43;16.53;;;14.67;;
21192;SDS011;10754;51.106;7.164;2022-12-13T04:03:09;18.17;;;15.13;;
21192;SDS011;10754;51.106;7.164;2022-12-13T04:05:35;16.50;;;14.40;;
21192;SDS011;10754;51.106;7.164;2022-12-13T04:08:00;19.23;;;14.43;;
21192;SDS011;10754;51.106;7.164;2022-12-13T04:10:26;16.07;;;13.50;;
21192;SDS011;10754;51.106;7.164;2022-12-13T04:12:51;16.27;;;14.10;;
21192;SDS011;10754;51.106;7.164;2022-12-13T04:15:36;17.77;;;13.73;;
21192;SDS011;10754;51.106;7.164;2022-12-13T04:18:02;16.57;;;13.77;;
21192;SDS011;10754;51.106;7.164;2022-12-13T04:20:28;17.23;;;14.00;;
21192;SDS011;10754;51.106;7.164;2022-12-13T04:22:53;18.63;;;14.53;;
21192;SDS011;10754;51.106;7.164;2022-12-13T04:25:19;17.27;;;14.20;;
21192;SDS011;10754;51.106;7.164;2022-12-13T04:27:44;19.03;;;14.60;;
21192;SDS011;10754;51.106;7.164;2022-12-13T04:30:10;16.13;;;12.97;;
21192;SDS011;10754;51.106;7.164;2022-12-13T04:32:36;17.57;;;14.47;;
21192;SDS011;10754;51.106;7.164;2022-12-13T04:35:02;17.50;;;14.07;;
21192;SDS011;10754;51.106;7.164;2022-12-13T04:37:28;17.70;;;13.63;;
21192;SDS011;10754;51.106;7.164;2022-12-13T04:39:54;18.10;;;15.07;;
21192;SDS011;10754;51.106;7.164;2022-12-13T04:42:20;17.43;;;13.87;;
21192;SDS011;10754;51.106;7.164;2022-12-13T04:44:45;15.27;;;12.77;;
21192;SDS011;10754;51.106;7.164;2022-12-13T04:47:13;16.70;;;13.70;;
21192;SDS011;10754;51.106;7.164;2022-12-13T04:49:39;16.33;;;13.40;;
21192;SDS011;10754;51.106;7.164;2022-12-13T04:52:04;16.90;;;14.27;;
21192;SDS011;10754;51.106;7.164;2022-12-13T04:54:30;18.97;;;14.80;;
21192;SDS011;10754;51.106;7.164;2022-12-13T04:56:56;17.53;;;14.30;;
21192;SDS011;10754;51.106;7.164;2022-12-13T04:59:22;17.87;;;14.13;;
21192;SDS011;10754;51.106;7.164;2022-12-13T05:01:47;15.37;;;12.83;;
21192;SDS011;10754;51.106;7.164;2022-12-13T05:04:13;18.37;;;15.10;;
21192;SDS011;10754;51.106;7.164;2022-12-13T05:06:38;16.10;;;13.57;;
21192;SDS011;10754;51.106;7.164;2022-12-13T05:09:06;18.23;;;15.20;;
21192;SDS011;10754;51.106;7.164;2022-12-13T05:11:34;16.80;;;13.67;;
21192;SDS011;10754;51.106;7.164;2022-12-13T05:14:02;18.47;;;14.57;;
21192;SDS011;10754;51.106;7.164;2022-12-13T05:16:33;19.20;;;14.40;;
21192;SDS011;10754;51.106;7.164;2022-12-13T05:18:58;16.77;;;14.43;;
21192;SDS011;10754;51.106;7.164;2022-12-13T05:21:26;16.87;;;13.77;;
21192;SDS011;10754;51.106;7.164;2022-12-13T05:23:51;16.57;;;13.67;;
21192;SDS011;10754;51.106;7.164;2022-12-13T05:26:17;16.60;;;13.57;;
21192;SDS011;10754;51.106;7.164;2022-12-13T05:28:45;17.60;;;13.97;;
21192;SDS011;10754;51.106;7.164;2022-12-13T05:31:16;17.03;;;13.17;;
21192;SDS011;10754;51.106;7.164;2022-12-13T05:33:41;17.87;;;13.70;;
21192;SDS011;10754;51.106;7.164;2022-12-13T05:36:07;16.60;;;13.77;;
21192;SDS011;10754;51.106;7.164;2022-12-13T05:38:35;16.80;;;13.67;;
21192;SDS011;10754;51.106;7.164;2022-12-13T05:41:00;18.27;;;14.37;;
21192;SDS011;10754;51.106;7.164;2022-12-13T05:43:28;16.53;;;13.40;;
21192;SDS011;10754;51.106;7.164;2022-12-13T05:45:54;14.97;;;12.80;;
21192;SDS011;10754;51.106;7.164;2022-12-13T05:48:19;18.20;;;14.33;;
21192;SDS011;10754;51.106;7.164;2022-12-13T05:50:45;16.87;;;12.97;;
21192;SDS011;10754;51.106;7.164;2022-12-13T05:53:10;16.80;;;13.67;;
21192;SDS011;10754;51.106;7.164;2022-12-13T05:55:36;16.30;;;13.10;;
21192;SDS011;10754;51.106;7.164;2022-12-13T05:58:08;18.40;;;14.17;;
21192;SDS011;10754;51.106;7.164;2022-12-13T06:00:36;16.27;;;13.37;;
21192;SDS011;10754;51.106;7.164;2022-12-13T06:03:02;15.80;;;13.47;;
21192;SDS011;10754;51.106;7.164;2022-12-13T06:05:28;18.13;;;13.73;;
21192;SDS011;10754;51.106;7.164;2022-12-13T06:07:54;15.67;;;12.93;;
21192;SDS011;10754;51.106;7.164;2022-12-13T06:10:20;15.17;;;13.10;;
21192;SDS011;10754;51.106;7.164;2022-12-13T06:12:47;16.77;;;13.70;;
21192;SDS011;10754;51.106;7.164;2022-12-13T06:15:12;17.90;;;14.33;;
21192;SDS011;10754;51.106;7.164;2022-12-13T06:17:38;17.40;;;13.87;;
21192;SDS011;10754;51.106;7.164;2022-12-13T06:20:04;16.10;;;13.23;;
21192;SDS011;10754;51.106;7.164;2022-12-13T06:22:30;17.70;;;13.70;;
21192;SDS011;10754;51.106;7.164;2022-12-13T06:24:56;16.93;;;14.17;;
21192;SDS011;10754;51.106;7.164;2022-12-13T06:27:24;19.27;;;13.90;;
21192;SDS011;10754;51.106;7.164;2022-12-13T06:29:50;15.73;;;13.50;;
21192;SDS011;10754;51.106;7.164;2022-12-13T06:32:16;14.87;;;12.57;;
21192;SDS011;10754;51.106;7.164;2022-12-13T06:34:41;16.87;;;13.17;;
21192;SDS011;10754;51.106;7.164;2022-12-13T06:37:09;16.70;;;14.50;;
21192;SDS011;10754;51.106;7.164;2022-12-13T06:39:36;15.53;;;13.27;;
21192;SDS011;10754;51.106;7.164;2022-12-13T06:42:02;18.43;;;13.83;;
21192;SDS011;10754;51.106;7.164;2022-12-13T06:44:30;23.40;;;14.43;;
21192;SDS011;10754;51.106;7.164;2022-12-13T06:46:56;18.97;;;14.07;;
21192;SDS011;10754;51.106;7.164;2022-12-13T06:49:22;16.27;;;12.93;;
21192;SDS011;10754;51.106;7.164;2022-12-13T06:51:47;16.53;;;13.20;;
21192;SDS011;10754;51.106;7.164;2022-12-13T06:54:13;16.60;;;12.93;;
21192;SDS011;10754;51.106;7.164;2022-12-13T06:56:41;16.70;;;13.17;;
21192;SDS011;10754;51.106;7.164;2022-12-13T06:59:06;16.07;;;13.13;;
21192;SDS011;10754;51.106;7.164;2022-12-13T07:01:32;16.40;;;13.77;;
21192;SDS011;10754;51.106;7.164;2022-12-13T07:03:57;16.03;;;13.00;;
21192;SDS011;10754;51.106;7.164;2022-12-13T07:06:26;17.97;;;14.27;;
21192;SDS011;10754;51.106;7.164;2022-12-13T07:08:54;17.17;;;12.70;;
21192;SDS011;10754;51.106;7.164;2022-12-13T07:11:22;16.03;;;12.70;;
21192;SDS011;10754;51.106;7.164;2022-12-13T07:13:49;15.33;;;13.03;;
21192;SDS011;10754;51.106;7.164;2022-12-13T07:16:16;17.20;;;13.23;;
21192;SDS011;10754;51.106;7.164;2022-12-13T07:18:42;14.17;;;12.00;;
21192;SDS011;10754;51.106;7.164;2022-12-13T07:21:09;17.40;;;12.73;;
21192;SDS011;10754;51.106;7.164;2022-12-13T07:23:39;16.67;;;13.00;;
21192;SDS011;10754;51.106;7.164;2022-12-13T07:26:06;14.43;;;12.37;;
21192;SDS011;10754;51.106;7.164;2022-12-13T07:28:32;15.27;;;13.03;;
21192;SDS011;10754;51.106;7.164;2022-12-13T07:30:59;15.33;;;12.77;;
21192;SDS011;10754;51.106;7.164;2022-12-13T07:33:28;16.03;;;12.33;;
21192;SDS011;10754;51.106;7.164;2022-12-13T07:38:25;15.80;;;12.90;;
21192;SDS011;10754;51.106;7.164;2022-12-13T07:40:55;16.90;;;12.57;;
21192;SDS011;10754;51.106;7.164;2022-12-13T07:43:21;14.73;;;12.87;;
21192;SDS011;10754;51.106;7.164;2022-12-13T07:45:47;13.73;;;12.00;;
21192;SDS011;10754;51.106;7.164;2022-12-13T07:48:12;15.63;;;12.77;;
21192;SDS011;10754;51.106;7.164;2022-12-13T07:50:38;15.63;;;12.80;;
21192;SDS011;10754;51.106;7.164;2022-12-13T07:53:04;15.87;;;13.13;;
21192;SDS011;10754;51.106;7.164;2022-12-13T07:55:31;14.23;;;11.97;;
21192;SDS011;10754;51.106;7.164;2022-12-13T07:58:04;15.40;;;12.80;;
21192;SDS011;10754;51.106;7.164;2022-12-13T08:00:36;14.53;;;12.00;;
21192;SDS011;10754;51.106;7.164;2022-12-13T08:03:03;15.87;;;12.23;;
21192;SDS011;10754;51.106;7.164;2022-12-13T08:05:29;14.70;;;12.47;;
21192;SDS011;10754;51.106;7.164;2022-12-13T08:07:59;14.73;;;11.93;;
21192;SDS011;10754;51.106;7.164;2022-12-13T08:10:25;14.70;;;12.27;;
21192;SDS011;10754;51.106;7.164;2022-12-13T08:12:51;13.83;;;12.03;;
21192;SDS011;10754;51.106;7.164;2022-12-13T08:15:17;14.93;;;12.53;;
21192;SDS011;10754;51.106;7.164;2022-12-13T08:17:45;16.87;;;12.20;;
21192;SDS011;10754;51.106;7.164;2022-12-13T08:20:11;14.73;;;11.37;;
21192;SDS011;10754;51.106;7.164;2022-12-13T08:22:37;13.60;;;11.27;;
21192;SDS011;10754;51.106;7.164;2022-12-13T08:25:03;14.03;;;12.00;;
21192;SDS011;10754;51.106;7.164;2022-12-13T08:27:30;13.03;;;11.50;;
21192;SDS011;10754;51.106;7.164;2022-12-13T08:29:55;13.33;;;11.07;;
21192;SDS011;10754;51.106;7.164;2022-12-13T08:32:24;13.93;;;10.73;;
21192;SDS011;10754;51.106;7.164;2022-12-13T08:34:50;14.73;;;12.17;;
21192;SDS011;10754;51.106;7.164;2022-12-13T08:37:15;13.93;;;11.67;;
21192;SDS011;10754;51.106;7.164;2022-12-13T08:39:41;14.80;;;12.47;;
21192;SDS011;10754;51.106;7.164;2022-12-13T08:42:12;13.60;;;11.77;;
21192;SDS011;10754;51.106;7.164;2022-12-13T08:44:40;13.40;;;11.43;;
21192;SDS011;10754;51.106;7.164;2022-12-13T08:47:06;13.83;;;11.47;;
21192;SDS011;10754;51.106;7.164;2022-12-13T08:49:31;13.27;;;11.40;;
21192;SDS011;10754;51.106;7.164;2022-12-13T08:51:57;15.80;;;12.80;;
21192;SDS011;10754;51.106;7.164;2022-12-13T08:54:23;15.17;;;11.17;;
21192;SDS011;10754;51.106;7.164;2022-12-13T08:56:52;13.30;;;11.00;;
21192;SDS011;10754;51.106;7.164;2022-12-13T08:59:17;12.80;;;10.47;;
21192;SDS011;10754;51.106;7.164;2022-12-13T09:01:43;12.27;;;10.60;;
21192;SDS011;10754;51.106;7.164;2022-12-13T09:04:09;12.97;;;11.37;;
21192;SDS011;10754;51.106;7.164;2022-12-13T09:06:34;15.10;;;11.33;;
21192;SDS011;10754;51.106;7.164;2022-12-13T09:09:01;14.13;;;11.47;;
21192;SDS011;10754;51.106;7.164;2022-12-13T09:11:26;13.53;;;11.20;;
21192;SDS011;10754;51.106;7.164;2022-12-13T09:13:52;14.83;;;11.57;;
21192;SDS011;10754;51.106;7.164;2022-12-13T09:16:18;13.90;;;11.87;;
21192;SDS011;10754;51.106;7.164;2022-12-13T09:18:49;12.70;;;10.43;;
21192;SDS011;10754;51.106;7.164;2022-12-13T09:21:15;14.57;;;10.97;;
21192;SDS011;10754;51.106;7.164;2022-12-13T09:23:41;14.60;;;11.87;;
21192;SDS011;10754;51.106;7.164;2022-12-13T09:26:07;16.63;;;12.03;;
21192;SDS011;10754;51.106;7.164;2022-12-13T09:28:36;13.50;;;11.10;;
21192;SDS011;10754;51.106;7.164;2022-12-13T09:31:06;14.97;;;11.33;;
21192;SDS011;10754;51.106;7.164;2022-12-13T09:33:33;13.53;;;11.13;;
21192;SDS011;10754;51.106;7.164;2022-12-13T09:36:05;14.80;;;11.27;;
21192;SDS011;10754;51.106;7.164;2022-12-13T09:38:32;15.50;;;12.53;;
21192;SDS011;10754;51.106;7.164;2022-12-13T09:41:12;13.30;;;11.13;;
21192;SDS011;10754;51.106;7.164;2022-12-13T09:43:48;13.43;;;11.03;;
21192;SDS011;10754;51.106;7.164;2022-12-13T09:46:41;12.00;;;10.50;;
21192;SDS011;10754;51.106;7.164;2022-12-13T09:49:12;12.60;;;10.67;;
21192;SDS011;10754;51.106;7.164;2022-12-13T11:21:40;8.80;;;7.90;;
21192;SDS011;10754;51.106;7.164;2022-12-13T12:10:00;9.43;;;8.00;;
21192;SDS011;10754;51.106;7.164;2022-12-13T13:03:01;7.50;;;6.73;;
21192;SDS011;10754;51.106;7.164;2022-12-13T14:39:34;8.10;;;6.93;;
21192;SDS011;10754;51.106;7.164;2022-12-13T15:19:44;8.57;;;7.13;;
21192;SDS011;10754;51.106;7.164;2022-12-13T15:22:54;9.47;;;6.97;;
21192;SDS011;10754;51.106;7.164;2022-12-13T15:26:07;7.73;;;6.80;;
21192;SDS011;10754;51.106;7.164;2022-12-13T15:29:01;8.40;;;7.03;;
21192;SDS011;10754;51.106;7.164;2022-12-13T15:31:57;10.90;;;7.10;;
21192;SDS011;10754;51.106;7.164;2022-12-13T15:35:14;9.07;;;7.67;;
21192;SDS011;10754;51.106;7.164;2022-12-13T15:38:44;8.13;;;6.80;;
21192;SDS011;10754;51.106;7.164;2022-12-13T15:41:34;7.20;;;6.27;;
21192;SDS011;10754;51.106;7.164;2022-12-13T15:47:59;9.73;;;6.30;;
21192;SDS011;10754;51.106;7.164;2022-12-13T16:00:32;8.23;;;7.00;;
21192;SDS011;10754;51.106;7.164;2022-12-13T16:03:13;9.27;;;7.47;;
21192;SDS011;10754;51.106;7.164;2022-12-13T16:09:15;7.17;;;6.43;;
21192;SDS011;10754;51.106;7.164;2022-12-13T16:14:47;7.30;;;6.13;;
21192;SDS011;10754;51.106;7.164;2022-12-13T16:17:26;7.57;;;6.17;;
21192;SDS011;10754;51.106;7.164;2022-12-13T16:19:59;8.73;;;6.50;;
21192;SDS011;10754;51.106;7.164;2022-12-13T16:22:34;7.57;;;6.37;;
21192;SDS011;10754;51.106;7.164;2022-12-13T16:25:12;9.23;;;7.83;;
21192;SDS011;10754;51.106;7.164;2022-12-13T16:27:54;8.07;;;6.83;;
21192;SDS011;10754;51.106;7.164;2022-12-13T16:30:57;11.10;;;8.63;;
21192;SDS011;10754;51.106;7.164;2022-12-13T16:33:36;11.17;;;8.27;;
21192;SDS011;10754;51.106;7.164;2022-12-13T16:36:09;8.63;;;7.00;;
21192;SDS011;10754;51.106;7.164;2022-12-13T16:38:50;6.90;;;5.83;;
21192;SDS011;10754;51.106;7.164;2022-12-13T16:41:19;7.77;;;6.13;;
21192;SDS011;10754;51.106;7.164;2022-12-13T16:43:56;9.07;;;6.80;;
21192;SDS011;10754;51.106;7.164;2022-12-13T16:46:32;8.43;;;7.60;;
21192;SDS011;10754;51.106;7.164;2022-12-13T16:49:18;11.23;;;8.00;;
21192;SDS011;10754;51.106;7.164;2022-12-13T16:51:56;9.23;;;7.80;;
21192;SDS011;10754;51.106;7.164;2022-12-13T16:54:29;8.43;;;6.20;;
21192;SDS011;10754;51.106;7.164;2022-12-13T16:59:45;8.87;;;7.30;;
21192;SDS011;10754;51.106;7.164;2022-12-13T17:02:15;8.40;;;7.03;;
21192;SDS011;10754;51.106;7.164;2022-12-13T17:04:48;7.40;;;6.53;;
21192;SDS011;10754;51.106;7.164;2022-12-13T17:07:17;7.10;;;6.10;;
21192;SDS011;10754;51.106;7.164;2022-12-13T17:09:48;8.37;;;6.50;;
21192;SDS011;10754;51.106;7.164;2022-12-13T17:12:13;7.03;;;5.40;;
21192;SDS011;10754;51.106;7.164;2022-12-13T17:14:48;7.47;;;6.23;;
21192;SDS011;10754;51.106;7.164;2022-12-13T17:17:40;7.47;;;5.70;;
21192;SDS011;10754;51.106;7.164;2022-12-13T17:23:03;7.63;;;6.43;;
21192;SDS011;10754;51.106;7.164;2022-12-13T17:25:46;8.07;;;6.90;;
21192;SDS011;10754;51.106;7.164;2022-12-13T17:28:33;7.70;;;6.80;;
21192;SDS011;10754;51.106;7.164;2022-12-13T17:31:27;6.90;;;6.20;;
21192;SDS011;10754;51.106;7.164;2022-12-13T17:33:59;8.30;;;7.20;;
21192;SDS011;10754;51.106;7.164;2022-12-13T17:36:28;9.47;;;7.30;;
21192;SDS011;10754;51.106;7.164;2022-12-13T17:39:36;9.93;;;6.83;;
21192;SDS011;10754;51.106;7.164;2022-12-13T17:42:50;10.23;;;7.80;;
21192;SDS011;10754;51.106;7.164;2022-12-13T17:45:44;8.40;;;7.50;;
21192;SDS011;10754;51.106;7.164;2022-12-13T17:51:48;8.50;;;6.10;;
21192;SDS011;10754;51.106;7.164;2022-12-13T17:54:26;7.00;;;6.23;;
21192;SDS011;10754;51.106;7.164;2022-12-13T18:00:11;7.27;;;6.17;;
21192;SDS011;10754;51.106;7.164;2022-12-13T18:03:03;9.60;;;7.67;;
21192;SDS011;10754;51.106;7.164;2022-12-13T18:11:53;8.73;;;7.53;;
21192;SDS011;10754;51.106;7.164;2022-12-13T18:14:32;8.80;;;7.90;;
21192;SDS011;10754;51.106;7.164;2022-12-13T18:17:16;10.17;;;8.17;;
21192;SDS011;10754;51.106;7.164;2022-12-13T18:19:54;9.03;;;7.43;;
21192;SDS011;10754;51.106;7.164;2022-12-13T18:25:46;7.83;;;6.63;;
21192;SDS011;10754;51.106;7.164;2022-12-13T18:28:15;9.43;;;7.30;;
21192;SDS011;10754;51.106;7.164;2022-12-13T18:37:02;8.40;;;7.07;;
21192;SDS011;10754;51.106;7.164;2022-12-13T18:39:50;9.27;;;7.50;;
21192;SDS011;10754;51.106;7.164;2022-12-13T18:46:19;7.43;;;6.60;;
21192;SDS011;10754;51.106;7.164;2022-12-13T19:03:24;7.43;;;5.33;;
21192;SDS011;10754;51.106;7.164;2022-12-13T19:05:57;7.10;;;6.23;;
21192;SDS011;10754;51.106;7.164;2022-12-13T19:12:14;6.97;;;6.10;;
21192;SDS011;10754;51.106;7.164;2022-12-13T19:18:21;7.70;;;5.60;;
21192;SDS011;10754;51.106;7.164;2022-12-13T20:15:47;6.60;;;4.93;;
21192;SDS011;10754;51.106;7.164;2022-12-13T20:18:12;5.37;;;4.83;;
21192;SDS011;10754;51.106;7.164;2022-12-13T20:20:38;6.43;;;5.70;;
21192;SDS011;10754;51.106;7.164;2022-12-13T20:23:03;6.60;;;5.67;;
21192;SDS011;10754;51.106;7.164;2022-12-13T20:25:29;6.50;;;5.47;;
21192;SDS011;10754;51.106;7.164;2022-12-13T20:27:54;7.90;;;5.10;;
21192;SDS011;10754;51.106;7.164;2022-12-13T20:30:22;6.27;;;5.30;;
21192;SDS011;10754;51.106;7.164;2022-12-13T20:32:50;5.47;;;4.60;;
21192;SDS011;10754;51.106;7.164;2022-12-13T20:35:16;5.90;;;5.30;;
21192;SDS011;10754;51.106;7.164;2022-12-13T20:37:41;5.90;;;5.07;;
21192;SDS011;10754;51.106;7.164;2022-12-13T20:40:07;6.03;;;4.80;;
21192;SDS011;10754;51.106;7.164;2022-12-13T20:42:33;5.57;;;4.97;;
21192;SDS011;10754;51.106;7.164;2022-12-13T20:44:59;6.50;;;5.43;;
21192;SDS011;10754;51.106;7.164;2022-12-13T20:47:24;5.77;;;5.17;;
21192;SDS011;10754;51.106;7.164;2022-12-13T20:49:50;6.23;;;5.40;;
21192;SDS011;10754;51.106;7.164;2022-12-13T20:52:18;6.27;;;4.83;;
21192;SDS011;10754;51.106;7.164;2022-12-13T20:54:43;6.40;;;5.43;;
21192;SDS011;10754;51.106;7.164;2022-12-13T20:57:09;6.20;;;5.00;;
21192;SDS011;10754;51.106;7.164;2022-12-13T20:59:35;5.70;;;4.80;;
21192;SDS011;10754;51.106;7.164;2022-12-13T21:02:00;5.20;;;4.70;;
21192;SDS011;10754;51.106;7.164;2022-12-13T21:04:26;6.80;;;5.43;;
21192;SDS011;10754;51.106;7.164;2022-12-13T21:06:52;5.80;;;5.13;;
21192;SDS011;10754;51.106;7.164;2022-12-13T21:09:17;5.73;;;5.13;;
21192;SDS011;10754;51.106;7.164;2022-12-13T21:11:44;6.37;;;5.73;;
21192;SDS011;10754;51.106;7.164;2022-12-13T21:16:46;6.00;;;4.80;;
21192;SDS011;10754;51.106;7.164;2022-12-13T21:19:13;6.23;;;5.63;;
21192;SDS011;10754;51.106;7.164;2022-12-13T21:21:40;5.93;;;5.00;;
21192;SDS011;10754;51.106;7.164;2022-12-13T21:24:06;5.97;;;5.13;;
21192;SDS011;10754;51.106;7.164;2022-12-13T21:26:32;6.43;;;5.13;;
21192;SDS011;10754;51.106;7.164;2022-12-13T21:28:59;6.30;;;5.37;;
21192;SDS011;10754;51.106;7.164;2022-12-13T21:31:26;6.23;;;5.63;;
21192;SDS011;10754;51.106;7.164;2022-12-13T21:33:56;5.90;;;4.80;;
21192;SDS011;10754;51.106;7.164;2022-12-13T21:36:24;6.17;;;5.33;;
21192;SDS011;10754;51.106;7.164;2022-12-13T21:38:52;6.90;;;4.80;;
21192;SDS011;10754;51.106;7.164;2022-12-13T21:41:22;5.47;;;4.47;;
21192;SDS011;10754;51.106;7.164;2022-12-13T21:43:49;5.73;;;4.50;;
21192;SDS011;10754;51.106;7.164;2022-12-13T21:46:16;5.77;;;4.67;;
21192;SDS011;10754;51.106;7.164;2022-12-13T21:48:47;5.13;;;4.30;;
21192;SDS011;10754;51.106;7.164;2022-12-13T21:51:14;5.87;;;4.93;;
21192;SDS011;10754;51.106;7.164;2022-12-13T21:53:41;5.83;;;4.90;;
21192;SDS011;10754;51.106;7.164;2022-12-13T21:56:08;6.00;;;4.70;;
21192;SDS011;10754;51.106;7.164;2022-12-13T21:58:54;6.30;;;5.30;;
21192;SDS011;10754;51.106;7.164;2022-12-13T22:01:45;4.90;;;4.23;;
21192;SDS011;10754;51.106;7.164;2022-12-13T22:04:33;4.90;;;4.03;;
21192;SDS011;10754;51.106;7.164;2022-12-13T22:07:03;5.27;;;4.33;;
21192;SDS011;10754;51.106;7.164;2022-12-13T22:09:30;5.37;;;4.27;;
21192;SDS011;10754;51.106;7.164;2022-12-13T22:11:56;5.33;;;4.20;;
21192;SDS011;10754;51.106;7.164;2022-12-13T22:14:22;6.13;;;4.60;;
21192;SDS011;10754;51.106;7.164;2022-12-13T22:16:50;6.90;;;4.87;;
21192;SDS011;10754;51.106;7.164;2022-12-13T22:19:16;4.50;;;4.10;;
21192;SDS011;10754;51.106;7.164;2022-12-13T22:21:42;8.17;;;4.90;;
21192;SDS011;10754;51.106;7.164;2022-12-13T22:24:08;4.77;;;4.27;;
21192;SDS011;10754;51.106;7.164;2022-12-13T22:26:35;5.00;;;4.20;;
21192;SDS011;10754;51.106;7.164;2022-12-13T22:29:02;5.37;;;4.47;;
21192;SDS011;10754;51.106;7.164;2022-12-13T22:31:27;5.00;;;4.30;;
21192;SDS011;10754;51.106;7.164;2022-12-13T22:33:55;4.87;;;4.37;;
21192;SDS011;10754;51.106;7.164;2022-12-13T22:36:21;5.77;;;4.50;;